Time;durP1;ratioP1;P1;durP2;ratioP2;P2;SDS_P1;SDS_P2;PMS_P1;PMS_P2;Temp;Humidity;BMP_temperature;BMP_pressure;BME280_temperature;BME280_humidity;BME280_pressure;Samples;Min_cycle;Max_cycle;Signal;HPM_P1;HPM_P2
2022/10/08 00:01:39;;;;;;;4.13;1.90;;;;;;;;;;5017040;28;20029;-82
2022/10/08 00:04:04;;;;;;;4.75;1.92;;;;;;;;;;5016618;28;20026;-82
2022/10/08 00:06:30;;;;;;;4.35;1.98;;;;;;;;;;5015469;28;20041;-81
2022/10/08 00:08:59;;;;;;;5.63;1.98;;;;;;;;;;5015159;28;20018;-82
2022/10/08 00:11:30;;;;;;;6.00;1.65;;;;;;;;;;5015453;28;20088;-82
2022/10/08 00:13:56;;;;;;;8.70;2.03;;;;;;;;;;5015016;28;20026;-82
2022/10/08 00:16:33;;;;;;;7.07;1.92;;;;;;;;;;5016222;28;20049;-82
2022/10/08 00:19:02;;;;;;;5.47;1.77;;;;;;;;;;5014847;28;20087;-81
2022/10/08 00:21:31;;;;;;;5.72;2.05;;;;;;;;;;5016678;28;20100;-82
2022/10/08 00:23:57;;;;;;;5.95;2.45;;;;;;;;;;5015129;28;20025;-82
2022/10/08 00:26:25;;;;;;;5.55;1.90;;;;;;;;;;5014941;28;20435;-81
2022/10/08 00:28:52;;;;;;;6.70;1.90;;;;;;;;;;5014917;28;20105;-81
2022/10/08 00:31:31;;;;;;;3.45;1.83;;;;;;;;;;5014625;28;20025;-81
2022/10/08 00:33:58;;;;;;;7.25;1.65;;;;;;;;;;5014767;28;20079;-81
2022/10/08 00:36:25;;;;;;;6.60;1.92;;;;;;;;;;5013749;28;20148;-81
2022/10/08 00:39:12;;;;;;;6.05;1.90;;;;;;;;;;5014451;28;20037;-81
2022/10/08 00:41:40;;;;;;;6.20;1.77;;;;;;;;;;5014460;28;20120;-81
2022/10/08 00:44:43;;;;;;;3.85;1.70;;;;;;;;;;5014382;28;20030;-81
2022/10/08 00:47:32;;;;;;;4.43;1.60;;;;;;;;;;5014248;28;20040;-81
2022/10/08 00:50:01;;;;;;;4.38;1.77;;;;;;;;;;5014478;28;20029;-81
2022/10/08 00:52:28;;;;;;;5.70;1.52;;;;;;;;;;5015772;28;20044;-81
2022/10/08 00:54:55;;;;;;;3.55;1.50;;;;;;;;;;5030777;28;20030;-81
2022/10/08 00:57:21;;;;;;;4.68;1.80;;;;;;;;;;5014324;28;20041;-81
2022/10/08 00:59:46;;;;;;;4.30;1.52;;;;;;;;;;5014114;28;20065;-81
2022/10/08 01:02:12;;;;;;;6.22;1.90;;;;;;;;;;5015417;28;20105;-81
2022/10/08 01:04:38;;;;;;;3.22;1.30;;;;;;;;;;5014063;28;20384;-82
2022/10/08 01:07:27;;;;;;;3.13;1.38;;;;;;;;;;5014401;28;20504;-82
2022/10/08 01:10:07;;;;;;;3.70;1.73;;;;;;;;;;5013867;28;20118;-82
2022/10/08 01:12:53;;;;;;;5.35;1.60;;;;;;;;;;5015330;28;20026;-82
2022/10/08 01:15:31;;;;;;;6.07;1.50;;;;;;;;;;5013775;28;20017;-82
2022/10/08 01:18:34;;;;;;;4.22;1.40;;;;;;;;;;5013979;28;20026;-82
2022/10/08 01:21:16;;;;;;;3.25;1.40;;;;;;;;;;5013763;28;20034;-82
2022/10/08 01:23:44;;;;;;;2.40;1.40;;;;;;;;;;5013870;28;20156;-82
2022/10/08 01:26:42;;;;;;;4.00;1.42;;;;;;;;;;5013468;28;20037;-82
2022/10/08 01:29:21;;;;;;;3.22;1.20;;;;;;;;;;5029908;28;20040;-81
2022/10/08 01:31:50;;;;;;;2.75;1.30;;;;;;;;;;5013677;28;20026;-82
2022/10/08 01:34:40;;;;;;;3.50;1.35;;;;;;;;;;5013713;28;20559;-82
2022/10/08 01:37:07;;;;;;;2.70;1.40;;;;;;;;;;5014290;28;20038;-82
2022/10/08 01:39:35;;;;;;;1.85;1.13;;;;;;;;;;5013639;28;20030;-81
2022/10/08 01:42:02;;;;;;;2.75;1.20;;;;;;;;;;5013575;28;20026;-82
2022/10/08 01:44:28;;;;;;;5.55;1.20;;;;;;;;;;5013675;28;20391;-82
2022/10/08 01:46:57;;;;;;;2.50;1.20;;;;;;;;;;5013079;28;20030;-82
2022/10/08 01:49:25;;;;;;;2.78;1.40;;;;;;;;;;5013166;28;20029;-81
2022/10/08 01:51:53;;;;;;;3.05;1.20;;;;;;;;;;5014874;28;20065;-81
2022/10/08 01:54:19;;;;;;;2.05;1.20;;;;;;;;;;5013198;28;20054;-81
2022/10/08 01:56:46;;;;;;;3.35;1.10;;;;;;;;;;5013087;28;20026;-81
2022/10/08 01:59:23;;;;;;;1.92;1.10;;;;;;;;;;5012939;28;20022;-82
2022/10/08 02:01:58;;;;;;;5.18;1.20;;;;;;;;;;5013081;28;20109;-81
2022/10/08 02:04:35;;;;;;;1.55;1.00;;;;;;;;;;5012866;28;20041;-82
2022/10/08 02:07:07;;;;;;;1.85;1.17;;;;;;;;;;5012998;28;20036;-81
2022/10/08 02:09:37;;;;;;;3.13;1.10;;;;;;;;;;5012750;28;20022;-81
2022/10/08 02:12:03;;;;;;;2.80;1.00;;;;;;;;;;5012733;28;20021;-81
2022/10/08 02:14:29;;;;;;;1.65;1.08;;;;;;;;;;5014197;28;20516;-82
2022/10/08 02:17:06;;;;;;;1.80;1.00;;;;;;;;;;5012704;28;20026;-82
2022/10/08 02:19:45;;;;;;;2.50;1.30;;;;;;;;;;5013864;28;20029;-82
2022/10/08 02:22:15;;;;;;;2.25;1.02;;;;;;;;;;5013693;28;20037;-82
2022/10/08 02:24:44;;;;;;;2.40;1.25;;;;;;;;;;5013119;28;20030;-81
2022/10/08 02:27:10;;;;;;;2.67;1.20;;;;;;;;;;5012494;28;20049;-81
2022/10/08 02:29:41;;;;;;;1.35;1.00;;;;;;;;;;5012474;28;20038;-82
2022/10/08 02:32:34;;;;;;;3.65;1.10;;;;;;;;;;5012384;28;20030;-82
2022/10/08 02:35:13;;;;;;;3.92;1.52;;;;;;;;;;5011390;28;20426;-82
2022/10/08 02:37:46;;;;;;;3.05;1.15;;;;;;;;;;5012337;28;20421;-82
2022/10/08 02:40:14;;;;;;;2.55;1.80;;;;;;;;;;5012667;28;20040;-82
2022/10/08 02:42:43;;;;;;;3.25;0.98;;;;;;;;;;5012564;28;20033;-82
2022/10/08 02:45:15;;;;;;;2.90;1.10;;;;;;;;;;5012382;28;20054;-82
2022/10/08 02:47:41;;;;;;;1.98;1.10;;;;;;;;;;5013715;28;20109;-82
2022/10/08 02:50:12;;;;;;;4.10;1.25;;;;;;;;;;5013662;28;20041;-81
2022/10/08 02:52:40;;;;;;;3.05;1.00;;;;;;;;;;5012164;28;20030;-82
2022/10/08 02:55:17;;;;;;;3.42;1.20;;;;;;;;;;5012573;28;20488;-82
2022/10/08 02:57:45;;;;;;;2.05;1.05;;;;;;;;;;5012256;28;20038;-81
2022/10/08 03:00:11;;;;;;;2.17;0.98;;;;;;;;;;5011870;28;20124;-82
2022/10/08 03:03:02;;;;;;;1.75;0.98;;;;;;;;;;5012299;28;20050;-81
2022/10/08 03:05:28;;;;;;;2.88;1.38;;;;;;;;;;5012046;28;20026;-82
2022/10/08 03:07:53;;;;;;;2.63;1.10;;;;;;;;;;5011991;28;20041;-81
2022/10/08 03:10:20;;;;;;;2.10;1.00;;;;;;;;;;5011925;28;20508;-82
2022/10/08 03:12:46;;;;;;;2.38;1.17;;;;;;;;;;5012345;28;20503;-81
2022/10/08 03:15:13;;;;;;;3.65;1.10;;;;;;;;;;5011939;28;20030;-82
2022/10/08 03:17:41;;;;;;;2.15;1.05;;;;;;;;;;5012005;28;20037;-82
2022/10/08 03:20:08;;;;;;;3.90;1.30;;;;;;;;;;5012057;28;20038;-82
2022/10/08 03:22:34;;;;;;;2.70;1.20;;;;;;;;;;5013373;28;20431;-82
2022/10/08 03:24:59;;;;;;;4.35;1.15;;;;;;;;;;5012230;28;20033;-82
2022/10/08 03:27:24;;;;;;;2.03;1.08;;;;;;;;;;5012080;28;20034;-81
2022/10/08 03:29:55;;;;;;;3.35;1.13;;;;;;;;;;5012120;28;20034;-81
2022/10/08 03:32:22;;;;;;;3.88;1.17;;;;;;;;;;5011963;28;20381;-82
2022/10/08 03:34:47;;;;;;;4.20;1.30;;;;;;;;;;5011746;28;20049;-81
2022/10/08 03:37:12;;;;;;;1.70;1.05;;;;;;;;;;5012989;28;20026;-81
2022/10/08 03:39:38;;;;;;;1.40;0.98;;;;;;;;;;5011872;28;20120;-82
2022/10/08 03:42:03;;;;;;;1.80;0.90;;;;;;;;;;5012918;28;20026;-82
2022/10/08 03:44:29;;;;;;;17.40;1.30;;;;;;;;;;5011533;28;20476;-81
2022/10/08 03:46:54;;;;;;;1.38;0.90;;;;;;;;;;5011939;28;20124;-82
2022/10/08 03:49:19;;;;;;;1.27;0.88;;;;;;;;;;5011980;28;20041;-82
2022/10/08 03:51:45;;;;;;;2.15;1.20;;;;;;;;;;5011839;28;20042;-82
2022/10/08 03:54:10;;;;;;;2.50;1.35;;;;;;;;;;5011645;28;20029;-82
2022/10/08 03:56:35;;;;;;;2.63;1.00;;;;;;;;;;5013193;28;20060;-82
2022/10/08 03:59:02;;;;;;;2.00;1.08;;;;;;;;;;5012888;28;20030;-82
2022/10/08 04:01:28;;;;;;;4.63;1.13;;;;;;;;;;5012884;28;20387;-81
2022/10/08 04:03:53;;;;;;;1.70;1.10;;;;;;;;;;5013556;28;20113;-82
2022/10/08 04:06:19;;;;;;;1.70;1.13;;;;;;;;;;5011906;28;20058;-82
2022/10/08 04:08:45;;;;;;;2.17;1.08;;;;;;;;;;5011441;28;20025;-82
2022/10/08 04:11:13;;;;;;;2.35;1.25;;;;;;;;;;5011439;28;20448;-82
2022/10/08 04:13:38;;;;;;;2.97;1.02;;;;;;;;;;5014855;28;20034;-82
2022/10/08 04:16:06;;;;;;;3.38;1.17;;;;;;;;;;5014921;28;20034;-82
2022/10/08 04:18:32;;;;;;;2.10;1.27;;;;;;;;;;5015193;28;20044;-83
2022/10/08 04:21:03;;;;;;;2.92;1.20;;;;;;;;;;5014787;28;20112;-81
2022/10/08 04:23:30;;;;;;;2.95;1.10;;;;;;;;;;5015021;28;20025;-81
2022/10/08 04:25:56;;;;;;;2.15;1.33;;;;;;;;;;5014689;28;20026;-82
2022/10/08 04:28:21;;;;;;;1.73;1.00;;;;;;;;;;5014809;28;20439;-81
2022/10/08 04:31:01;;;;;;;2.25;1.00;;;;;;;;;;5014466;28;20034;-81
2022/10/08 04:33:28;;;;;;;2.75;1.23;;;;;;;;;;5013982;28;20472;-81
2022/10/08 04:35:54;;;;;;;2.38;1.10;;;;;;;;;;5014249;28;20391;-81
2022/10/08 04:38:20;;;;;;;2.08;0.82;;;;;;;;;;5014113;28;20024;-81
2022/10/08 04:40:45;;;;;;;3.25;1.25;;;;;;;;;;5015337;28;20449;-81
2022/10/08 04:43:11;;;;;;;1.95;1.05;;;;;;;;;;5014064;28;20377;-81
2022/10/08 04:45:43;;;;;;;1.90;1.13;;;;;;;;;;5013876;28;20053;-81
2022/10/08 04:48:09;;;;;;;2.88;1.10;;;;;;;;;;5013814;28;20097;-82
2022/10/08 04:50:35;;;;;;;2.47;1.23;;;;;;;;;;5013959;28;20121;-82
2022/10/08 04:53:00;;;;;;;12.35;1.30;;;;;;;;;;5014134;28;20057;-81
2022/10/08 04:55:25;;;;;;;3.15;1.10;;;;;;;;;;5014148;28;20037;-81
2022/10/08 04:57:51;;;;;;;2.25;1.00;;;;;;;;;;5015927;28;20167;-81
2022/10/08 05:00:16;;;;;;;3.08;1.30;;;;;;;;;;5013509;28;20034;-81
2022/10/08 05:02:41;;;;;;;3.20;1.27;;;;;;;;;;4998342;28;20037;-81
2022/10/08 05:05:07;;;;;;;2.58;1.00;;;;;;;;;;5019145;28;20030;-82
2022/10/08 05:07:32;;;;;;;7.38;1.10;;;;;;;;;;5018209;28;20515;-82
2022/10/08 05:09:58;;;;;;;3.42;1.00;;;;;;;;;;5016364;28;20038;-82
2022/10/08 05:12:23;;;;;;;1.90;1.20;;;;;;;;;;5018067;28;20121;-81
2022/10/08 05:14:48;;;;;;;2.65;1.13;;;;;;;;;;4999890;28;20029;-82
2022/10/08 05:17:14;;;;;;;2.63;1.40;;;;;;;;;;5014481;28;20494;-82
2022/10/08 05:19:39;;;;;;;11.95;1.50;;;;;;;;;;5014612;28;20555;-82
2022/10/08 05:22:04;;;;;;;4.05;1.20;;;;;;;;;;5014798;28;20144;-82
2022/10/08 05:24:30;;;;;;;1.65;1.00;;;;;;;;;;5016868;28;20065;-82
2022/10/08 05:26:55;;;;;;;4.30;1.30;;;;;;;;;;5015110;28;20048;-82
2022/10/08 05:29:20;;;;;;;10.07;1.30;;;;;;;;;;5014989;28;20052;-81
2022/10/08 05:31:46;;;;;;;2.08;1.02;;;;;;;;;;5016020;28;20172;-81
2022/10/08 05:34:12;;;;;;;6.15;1.30;;;;;;;;;;5014293;28;20034;-82
2022/10/08 05:36:38;;;;;;;9.30;1.58;;;;;;;;;;5014914;28;20018;-81
2022/10/08 05:39:04;;;;;;;11.73;1.90;;;;;;;;;;5014847;28;20407;-82
2022/10/08 05:41:32;;;;;;;3.20;1.17;;;;;;;;;;5015062;28;20058;-81
2022/10/08 05:44:00;;;;;;;4.55;1.05;;;;;;;;;;5014644;28;20061;-80
2022/10/08 05:46:27;;;;;;;3.33;1.10;;;;;;;;;;5014394;28;20481;-81
2022/10/08 05:48:53;;;;;;;2.65;1.10;;;;;;;;;;5014573;28;20057;-81
2022/10/08 05:51:19;;;;;;;5.90;1.23;;;;;;;;;;5015446;28;20041;-81
2022/10/08 05:53:46;;;;;;;4.50;1.35;;;;;;;;;;5014493;28;20053;-81
2022/10/08 05:56:13;;;;;;;4.70;1.55;;;;;;;;;;5016478;28;20477;-81
2022/10/08 05:58:40;;;;;;;5.00;1.30;;;;;;;;;;5013015;28;20476;-81
2022/10/08 06:01:07;;;;;;;4.20;1.00;;;;;;;;;;5012397;28;20033;-81
2022/10/08 06:03:33;;;;;;;1.98;1.10;;;;;;;;;;5012609;28;20449;-81
2022/10/08 06:06:06;;;;;;;5.05;1.10;;;;;;;;;;5015475;28;20044;-84
2022/10/08 06:08:33;;;;;;;4.55;1.33;;;;;;;;;;5029582;28;20034;-81
2022/10/08 06:10:58;;;;;;;2.60;1.33;;;;;;;;;;5012587;28;20045;-81
2022/10/08 06:13:24;;;;;;;3.60;1.23;;;;;;;;;;5012645;28;20038;-81
2022/10/08 06:15:57;;;;;;;5.82;1.20;;;;;;;;;;5014329;28;20029;-83
2022/10/08 06:18:24;;;;;;;4.13;1.38;;;;;;;;;;5012898;28;20562;-84
2022/10/08 06:20:50;;;;;;;2.33;1.10;;;;;;;;;;5013229;28;20038;-84
2022/10/08 06:23:15;;;;;;;6.68;1.27;;;;;;;;;;5013789;28;20079;-85
2022/10/08 06:25:41;;;;;;;11.30;1.40;;;;;;;;;;5014711;28;20026;-86
2022/10/08 06:28:06;;;;;;;5.93;1.33;;;;;;;;;;5015712;28;20061;-85
2022/10/08 06:30:31;;;;;;;9.63;1.63;;;;;;;;;;5012878;28;20481;-82
2022/10/08 06:32:57;;;;;;;11.10;2.33;;;;;;;;;;5016039;28;20361;-87
2022/10/08 06:35:22;;;;;;;4.68;1.38;;;;;;;;;;5015814;28;20337;-82
2022/10/08 06:37:48;;;;;;;4.00;1.33;;;;;;;;;;5013475;28;20117;-82
2022/10/08 06:40:13;;;;;;;5.38;1.30;;;;;;;;;;5012554;28;20128;-82
2022/10/08 06:42:39;;;;;;;11.52;1.50;;;;;;;;;;5014376;28;20026;-83
2022/10/08 06:45:05;;;;;;;5.78;1.52;;;;;;;;;;5013914;28;20465;-81
2022/10/08 06:47:30;;;;;;;3.85;1.35;;;;;;;;;;5013376;28;20125;-82
2022/10/08 06:49:55;;;;;;;6.80;1.52;;;;;;;;;;5016999;28;20034;-84
2022/10/08 06:52:21;;;;;;;4.97;1.42;;;;;;;;;;5014743;28;20477;-80
2022/10/08 06:54:46;;;;;;;10.93;2.22;;;;;;;;;;5014069;28;20034;-80
2022/10/08 06:57:11;;;;;;;8.15;2.15;;;;;;;;;;5012822;28;20041;-80
2022/10/08 06:59:37;;;;;;;9.00;2.60;;;;;;;;;;5013563;28;20025;-83
2022/10/08 07:02:02;;;;;;;5.80;2.85;;;;;;;;;;5016995;28;20083;-81
2022/10/08 07:04:36;;;;;;;6.20;2.90;;;;;;;;;;5014499;28;20472;-81
2022/10/08 07:07:01;;;;;;;;;;;;;;;;;;4983402;28;20042;-79
2022/10/08 07:09:27;;;;;;;9.73;3.13;;;;;;;;;;5013003;28;19910;-81
2022/10/08 07:11:52;;;;;;;7.90;3.97;;;;;;;;;;5015416;28;20125;-82
2022/10/08 07:14:17;;;;;;;8.38;3.55;;;;;;;;;;5013799;28;20595;-82
2022/10/08 07:16:43;;;;;;;7.00;3.10;;;;;;;;;;4997695;28;20112;-79
2022/10/08 07:19:08;;;;;;;9.07;3.40;;;;;;;;;;5014180;28;20041;-81
2022/10/08 07:21:34;;;;;;;6.97;3.47;;;;;;;;;;5015058;28;20572;-81
2022/10/08 07:24:00;;;;;;;10.77;3.28;;;;;;;;;;5016376;28;20034;-81
2022/10/08 07:26:29;;;;;;;8.20;3.60;;;;;;;;;;4998700;28;20062;-81
2022/10/08 07:29:00;;;;;;;12.95;3.65;;;;;;;;;;5016203;28;20026;-86
2022/10/08 07:31:30;;;;;;;8.63;3.17;;;;;;;;;;5017002;28;20022;-87
2022/10/08 07:33:57;;;;;;;7.30;2.72;;;;;;;;;;5014209;28;20018;-85
2022/10/08 07:36:23;;;;;;;10.23;2.95;;;;;;;;;;4983172;28;20471;-83
2022/10/08 07:38:53;;;;;;;14.20;3.03;;;;;;;;;;5015716;28;20026;-89
2022/10/08 07:41:18;;;;;;;13.73;3.33;;;;;;;;;;5013688;28;20026;-82
2022/10/08 07:43:48;;;;;;;9.18;3.42;;;;;;;;;;5016018;28;20041;-81
2022/10/08 07:46:13;;;;;;;15.57;3.90;;;;;;;;;;5015181;28;20046;-82
2022/10/08 07:48:39;;;;;;;7.93;3.15;;;;;;;;;;5016885;28;20045;-82
2022/10/08 07:51:16;;;;;;;9.93;3.17;;;;;;;;;;5018772;28;20033;-82
2022/10/08 07:53:42;;;;;;;6.90;2.83;;;;;;;;;;5016238;28;20022;-83
2022/10/08 07:56:09;;;;;;;10.45;3.22;;;;;;;;;;5017527;28;20037;-83
2022/10/08 07:58:34;;;;;;;10.00;2.92;;;;;;;;;;5015452;28;20405;-84
2022/10/08 08:01:02;;;;;;;7.28;2.88;;;;;;;;;;5015929;28;20117;-83
2022/10/08 08:03:28;;;;;;;11.57;2.78;;;;;;;;;;5016926;28;20030;-82
2022/10/08 08:05:59;;;;;;;9.27;2.85;;;;;;;;;;5017218;28;20176;-82
2022/10/08 08:08:25;;;;;;;6.57;2.67;;;;;;;;;;5017760;28;20022;-80
2022/10/08 08:11:01;;;;;;;8.40;2.22;;;;;;;;;;5018132;28;20034;-83
2022/10/08 08:13:31;;;;;;;8.75;2.42;;;;;;;;;;5016032;28;20081;-80
2022/10/08 08:16:01;;;;;;;8.13;2.30;;;;;;;;;;5015523;28;20073;-82
2022/10/08 08:18:31;;;;;;;5.88;2.25;;;;;;;;;;4999912;28;20033;-81
2022/10/08 08:21:01;;;;;;;6.88;2.63;;;;;;;;;;5015755;28;20041;-80
2022/10/08 08:23:48;;;;;;;6.25;2.00;;;;;;;;;;5015530;28;20132;-81
2022/10/08 08:26:16;;;;;;;8.45;2.13;;;;;;;;;;5015407;28;20034;-82
2022/10/08 08:28:42;;;;;;;5.25;2.22;;;;;;;;;;5015506;28;20384;-80
2022/10/08 08:31:35;;;;;;;6.63;1.85;;;;;;;;;;5016657;28;20022;-85
2022/10/08 08:34:06;;;;;;;7.72;2.17;;;;;;;;;;5013470;28;20519;-80
2022/10/08 08:36:35;;;;;;;6.93;2.45;;;;;;;;;;5015634;28;20033;-81
2022/10/08 08:39:01;;;;;;;13.88;2.72;;;;;;;;;;5015439;28;20380;-82
2022/10/08 08:41:52;;;;;;;9.30;2.83;;;;;;;;;;5015271;28;20104;-81
2022/10/08 08:44:29;;;;;;;12.10;2.60;;;;;;;;;;5015387;28;20026;-81
2022/10/08 08:47:26;;;;;;;9.18;2.60;;;;;;;;;;5013967;28;20045;-81
2022/10/08 08:49:54;;;;;;;11.52;2.70;;;;;;;;;;5008076;28;20468;-81
2022/10/08 08:52:22;;;;;;;9.45;2.80;;;;;;;;;;5014626;28;20087;-83
2022/10/08 08:54:49;;;;;;;7.85;2.40;;;;;;;;;;5016494;28;20091;-83
2022/10/08 08:57:35;;;;;;;7.70;2.55;;;;;;;;;;5014349;28;20026;-84
2022/10/08 09:00:13;;;;;;;13.32;3.00;;;;;;;;;;5015030;28;20026;-82
2022/10/08 09:02:55;;;;;;;13.30;2.50;;;;;;;;;;4999489;28;20095;-83
2022/10/08 09:05:21;;;;;;;12.75;2.72;;;;;;;;;;5014839;28;20049;-85
2022/10/08 09:07:59;;;;;;;11.40;3.10;;;;;;;;;;5014797;28;20409;-81
2022/10/08 09:10:41;;;;;;;8.20;2.58;;;;;;;;;;5016016;28;20072;-80
2022/10/08 09:13:23;;;;;;;8.57;2.33;;;;;;;;;;5014694;28;20026;-80
2022/10/08 09:15:49;;;;;;;17.23;2.55;;;;;;;;;;5016147;28;20036;-79
2022/10/08 09:18:15;;;;;;;11.25;2.50;;;;;;;;;;5015517;28;20108;-80
2022/10/08 09:20:41;;;;;;;11.73;2.40;;;;;;;;;;5016140;28;20030;-82
2022/10/08 09:23:16;;;;;;;13.32;2.40;;;;;;;;;;4999094;28;20034;-79
2022/10/08 09:25:43;;;;;;;15.15;2.60;;;;;;;;;;5015235;28;20068;-79
2022/10/08 09:28:38;;;;;;;12.35;2.63;;;;;;;;;;4999475;28;20026;-79
2022/10/08 09:31:24;;;;;;;11.13;2.30;;;;;;;;;;5016957;28;20036;-80
2022/10/08 09:33:59;;;;;;;10.60;2.40;;;;;;;;;;5015895;28;20018;-80
2022/10/08 09:36:41;;;;;;;8.95;1.80;;;;;;;;;;5017678;28;20018;-81
2022/10/08 09:39:17;;;;;;;7.32;2.00;;;;;;;;;;5016549;28;20029;-80
2022/10/08 09:41:43;;;;;;;7.18;1.95;;;;;;;;;;5015852;28;20017;-81
2022/10/08 09:44:20;;;;;;;9.75;2.00;;;;;;;;;;5014557;28;20030;-81
2022/10/08 09:46:46;;;;;;;8.43;1.98;;;;;;;;;;5014685;28;20093;-81
2022/10/08 09:49:31;;;;;;;9.32;2.10;;;;;;;;;;5014098;28;20049;-81
2022/10/08 09:52:01;;;;;;;16.98;2.00;;;;;;;;;;5013799;28;20036;-81
2022/10/08 09:54:28;;;;;;;8.80;2.65;;;;;;;;;;5014133;28;20030;-81
2022/10/08 09:56:58;;;;;;;9.52;2.17;;;;;;;;;;5014188;28;20025;-81
2022/10/08 09:59:29;;;;;;;10.02;2.15;;;;;;;;;;5014897;28;20494;-81
2022/10/08 10:01:56;;;;;;;8.00;1.90;;;;;;;;;;5013374;28;20123;-81
2022/10/08 10:04:34;;;;;;;10.02;2.70;;;;;;;;;;5013293;28;20092;-81
2022/10/08 10:07:00;;;;;;;7.72;1.90;;;;;;;;;;5013969;28;20124;-81
2022/10/08 10:09:29;;;;;;;7.57;2.10;;;;;;;;;;5012508;28;20044;-81
2022/10/08 10:12:01;;;;;;;8.68;1.85;;;;;;;;;;5014758;28;20034;-81
2022/10/08 10:14:32;;;;;;;5.18;1.85;;;;;;;;;;5012830;28;20049;-81
2022/10/08 10:17:02;;;;;;;8.13;2.00;;;;;;;;;;5013944;28;20105;-81
2022/10/08 10:19:32;;;;;;;8.35;1.98;;;;;;;;;;5012642;28;20028;-82
2022/10/08 10:22:24;;;;;;;6.93;1.90;;;;;;;;;;5013394;28;20040;-80
2022/10/08 10:24:54;;;;;;;8.52;1.70;;;;;;;;;;5012368;28;20136;-79
2022/10/08 10:27:48;;;;;;;7.20;1.63;;;;;;;;;;5013033;28;20022;-80
2022/10/08 10:30:20;;;;;;;5.97;2.05;;;;;;;;;;5013375;28;20439;-80
2022/10/08 10:32:53;;;;;;;6.75;2.08;;;;;;;;;;5012927;28;20472;-81
2022/10/08 10:35:23;;;;;;;9.38;1.95;;;;;;;;;;5013199;28;20022;-81
2022/10/08 10:38:05;;;;;;;7.00;1.80;;;;;;;;;;5013241;28;20409;-81
2022/10/08 10:40:38;;;;;;;9.40;1.80;;;;;;;;;;5013715;28;20030;-82
2022/10/08 10:43:27;;;;;;;8.57;2.20;;;;;;;;;;5014416;28;20021;-81
2022/10/08 10:46:17;;;;;;;4.53;1.45;;;;;;;;;;5012667;28;20291;-81
2022/10/08 10:48:42;;;;;;;7.80;1.60;;;;;;;;;;5014104;28;20033;-80
2022/10/08 10:51:28;;;;;;;7.25;2.00;;;;;;;;;;5015084;28;20036;-81
2022/10/08 10:54:47;;;;;;;5.38;1.60;;;;;;;;;;5016078;28;20148;-81
2022/10/08 10:57:26;;;;;;;8.77;1.70;;;;;;;;;;5012417;28;20028;-80
2022/10/08 11:00:17;;;;;;;4.68;1.48;;;;;;;;;;5029557;28;20531;-80
2022/10/08 11:03:29;;;;;;;9.10;1.30;;;;;;;;;;5010549;28;20496;-80
2022/10/08 11:06:28;;;;;;;6.30;1.60;;;;;;;;;;5013137;28;20037;-80
2022/10/08 11:09:08;;;;;;;9.68;1.15;;;;;;;;;;5028796;28;20033;-81
2022/10/08 11:11:47;;;;;;;6.63;1.75;;;;;;;;;;5012427;28;20045;-80
2022/10/08 11:14:37;;;;;;;14.05;1.55;;;;;;;;;;5012913;28;20104;-80
2022/10/08 11:17:16;;;;;;;2.90;1.23;;;;;;;;;;5014284;28;20034;-80
2022/10/08 11:20:42;;;;;;;7.57;1.85;;;;;;;;;;5012787;28;20026;-83
2022/10/08 11:23:31;;;;;;;5.00;1.52;;;;;;;;;;4994848;28;20030;-79
2022/10/08 11:26:04;;;;;;;6.10;1.70;;;;;;;;;;5014356;28;20388;-83
2022/10/08 11:28:48;;;;;;;5.50;1.60;;;;;;;;;;5016831;28;20030;-82
2022/10/08 11:31:17;;;;;;;;;;;;;;;;;;5016453;28;20025;-79
2022/10/08 11:33:43;;;;;;;5.30;1.83;;;;;;;;;;5015486;28;19916;-81
2022/10/08 11:36:20;;;;;;;9.57;1.70;;;;;;;;;;5017234;28;20037;-80
2022/10/08 11:39:08;;;;;;;5.38;1.50;;;;;;;;;;5015608;28;20511;-81
2022/10/08 11:41:49;;;;;;;6.30;1.40;;;;;;;;;;5015950;28;20034;-80
2022/10/08 11:44:16;;;;;;;4.72;1.48;;;;;;;;;;5015301;28;20033;-81
2022/10/08 11:46:41;;;;;;;6.25;1.40;;;;;;;;;;4999392;28;20052;-82
2022/10/08 11:49:12;;;;;;;6.53;1.50;;;;;;;;;;5016373;28;20034;-81
2022/10/08 11:51:50;;;;;;;3.03;1.40;;;;;;;;;;5017069;28;20480;-80
2022/10/08 11:54:24;;;;;;;11.25;1.50;;;;;;;;;;5015356;28;20026;-81
2022/10/08 11:56:52;;;;;;;4.22;1.20;;;;;;;;;;5015185;28;20338;-82
2022/10/08 11:59:28;;;;;;;3.97;1.40;;;;;;;;;;5017309;28;20034;-82
2022/10/08 12:01:56;;;;;;;5.40;1.70;;;;;;;;;;5017090;28;20064;-78
2022/10/08 12:04:28;;;;;;;7.60;1.50;;;;;;;;;;5017122;28;20045;-80
2022/10/08 12:07:19;;;;;;;5.57;1.45;;;;;;;;;;5015613;28;20032;-80
2022/10/08 12:10:23;;;;;;;7.18;1.40;;;;;;;;;;5015806;28;20025;-80
2022/10/08 12:12:48;;;;;;;4.72;1.40;;;;;;;;;;5030936;28;20073;-80
2022/10/08 12:15:23;;;;;;;4.72;1.48;;;;;;;;;;5015842;28;20056;-79
2022/10/08 12:17:56;;;;;;;5.72;1.65;;;;;;;;;;5014317;28;20093;-80
2022/10/08 12:20:27;;;;;;;5.10;1.30;;;;;;;;;;5018702;28;20052;-83
2022/10/08 12:23:08;;;;;;;3.97;1.30;;;;;;;;;;5011432;28;20080;-79
2022/10/08 12:25:47;;;;;;;13.27;1.95;;;;;;;;;;5034228;28;20040;-80
2022/10/08 12:28:19;;;;;;;4.25;1.67;;;;;;;;;;5035288;28;20113;-77
2022/10/08 12:30:52;;;;;;;4.90;1.50;;;;;;;;;;5035561;28;20037;-78
2022/10/08 12:33:18;;;;;;;5.32;1.63;;;;;;;;;;5030302;28;20034;-78
2022/10/08 12:35:49;;;;;;;6.03;1.92;;;;;;;;;;5016156;28;20361;-78
2022/10/08 12:38:34;;;;;;;5.78;1.58;;;;;;;;;;5033190;28;20021;-79
2022/10/08 12:41:24;;;;;;;5.07;1.63;;;;;;;;;;5055245;28;20024;-78
2022/10/08 12:44:03;;;;;;;5.20;1.40;;;;;;;;;;5014682;28;20044;-78
2022/10/08 12:46:38;;;;;;;4.15;1.58;;;;;;;;;;5016511;28;20438;-78
2022/10/08 12:49:03;;;;;;;6.68;1.80;;;;;;;;;;5017578;28;20038;-81
2022/10/08 12:51:47;;;;;;;6.40;1.80;;;;;;;;;;5035215;28;20443;-78
2022/10/08 12:54:22;;;;;;;3.42;1.50;;;;;;;;;;5035304;28;20033;-79
2022/10/08 12:56:49;;;;;;;3.35;1.60;;;;;;;;;;5030300;28;20037;-78
2022/10/08 12:59:15;;;;;;;5.97;1.52;;;;;;;;;;4997800;28;20037;-79
2022/10/08 13:01:42;;;;;;;4.40;1.48;;;;;;;;;;5017089;28;20436;-79
2022/10/08 13:04:18;;;;;;;5.78;1.38;;;;;;;;;;5033466;28;20035;-78
2022/10/08 13:06:44;;;;;;;4.88;1.40;;;;;;;;;;5033513;28;20389;-80
2022/10/08 13:09:25;;;;;;;5.10;1.30;;;;;;;;;;5035209;28;20021;-79
2022/10/08 13:11:52;;;;;;;7.43;1.20;;;;;;;;;;5014233;28;20443;-80
2022/10/08 13:14:28;;;;;;;6.07;1.67;;;;;;;;;;5015282;28;20072;-82
2022/10/08 13:16:54;;;;;;;7.75;1.60;;;;;;;;;;5019282;28;20030;-82
2022/10/08 13:19:28;;;;;;;4.18;1.20;;;;;;;;;;5032877;28;20060;-81
2022/10/08 13:21:59;;;;;;;5.72;1.40;;;;;;;;;;5030309;28;20431;-80
2022/10/08 13:24:25;;;;;;;4.43;1.58;;;;;;;;;;5014383;28;20489;-80
2022/10/08 13:26:52;;;;;;;7.20;1.15;;;;;;;;;;5017519;28;20029;-80
2022/10/08 13:29:20;;;;;;;4.45;1.30;;;;;;;;;;5033079;28;20079;-81
2022/10/08 13:31:54;;;;;;;3.70;1.35;;;;;;;;;;5035646;28;20191;-80
2022/10/08 13:34:21;;;;;;;5.93;1.33;;;;;;;;;;5034950;28;20051;-80
2022/10/08 13:36:50;;;;;;;5.45;1.33;;;;;;;;;;5017751;28;20093;-81
2022/10/08 13:39:21;;;;;;;7.45;1.70;;;;;;;;;;5033331;28;20051;-80
2022/10/08 13:42:09;;;;;;;7.30;1.40;;;;;;;;;;5017039;28;20033;-81
2022/10/08 13:44:36;;;;;;;3.70;1.02;;;;;;;;;;5032994;28;20068;-80
2022/10/08 13:47:02;;;;;;;4.50;1.40;;;;;;;;;;5050640;28;20026;-78
2022/10/08 13:49:28;;;;;;;5.78;1.38;;;;;;;;;;5036534;28;20053;-79
2022/10/08 13:51:55;;;;;;;6.90;1.40;;;;;;;;;;5017777;28;20079;-80
2022/10/08 13:54:23;;;;;;;6.55;1.25;;;;;;;;;;5033816;28;20029;-78
2022/10/08 13:56:49;;;;;;;6.75;1.48;;;;;;;;;;5016437;28;20185;-82
2022/10/08 13:59:15;;;;;;;3.95;1.30;;;;;;;;;;5053227;28;20076;-78
2022/10/08 14:01:40;;;;;;;6.13;1.35;;;;;;;;;;5053140;28;20082;-78
2022/10/08 14:04:06;;;;;;;3.80;1.33;;;;;;;;;;5040812;28;20053;-78
2022/10/08 14:06:31;;;;;;;3.10;1.08;;;;;;;;;;5033272;28;20086;-78
2022/10/08 14:08:58;;;;;;;7.32;1.40;;;;;;;;;;5032834;28;20083;-78
2022/10/08 14:11:23;;;;;;;4.63;1.20;;;;;;;;;;5016815;28;20551;-80
2022/10/08 14:13:48;;;;;;;3.78;1.10;;;;;;;;;;5032712;28;20115;-80
2022/10/08 14:16:14;;;;;;;5.95;1.20;;;;;;;;;;5050732;28;20024;-78
2022/10/08 14:18:39;;;;;;;3.85;1.20;;;;;;;;;;5053537;28;20106;-80
2022/10/08 14:21:08;;;;;;;5.65;1.40;;;;;;;;;;5054590;28;20477;-80
2022/10/08 14:23:34;;;;;;;3.15;1.17;;;;;;;;;;5053776;28;20098;-80
2022/10/08 14:25:59;;;;;;;7.25;1.40;;;;;;;;;;5036750;28;20025;-80
2022/10/08 14:28:25;;;;;;;5.13;1.80;;;;;;;;;;5035640;28;20462;-80
2022/10/08 14:30:50;;;;;;;5.55;1.35;;;;;;;;;;5035498;28;20120;-80
2022/10/08 14:33:16;;;;;;;4.93;1.42;;;;;;;;;;5043148;28;20048;-79
2022/10/08 14:35:41;;;;;;;9.27;1.40;;;;;;;;;;5052161;28;20036;-80
2022/10/08 14:38:07;;;;;;;6.78;1.45;;;;;;;;;;5036149;28;20199;-79
2022/10/08 14:40:33;;;;;;;4.28;1.20;;;;;;;;;;5052681;28;20020;-80
2022/10/08 14:42:58;;;;;;;7.35;1.25;;;;;;;;;;5052658;28;20028;-79
2022/10/08 14:45:24;;;;;;;4.97;1.30;;;;;;;;;;5053085;28;20057;-80
2022/10/08 14:47:49;;;;;;;3.45;1.27;;;;;;;;;;5053097;28;20043;-80
2022/10/08 14:50:15;;;;;;;6.68;1.30;;;;;;;;;;5055015;28;20048;-79
2022/10/08 14:52:41;;;;;;;6.93;1.63;;;;;;;;;;5057262;28;20517;-78
2022/10/08 14:55:06;;;;;;;5.82;1.40;;;;;;;;;;5036485;28;20051;-79
2022/10/08 14:57:32;;;;;;;7.28;1.60;;;;;;;;;;5051855;28;20021;-79
2022/10/08 14:59:57;;;;;;;6.07;1.50;;;;;;;;;;5035919;28;20399;-79
2022/10/08 15:02:23;;;;;;;10.38;1.40;;;;;;;;;;5053614;28;20416;-78
2022/10/08 15:04:48;;;;;;;5.05;1.55;;;;;;;;;;5053331;28;20033;-78
2022/10/08 15:07:13;;;;;;;3.90;1.23;;;;;;;;;;5051776;28;20116;-79